sensor_id;sensor_type;location;lat;lon;timestamp;pressure;altitude;pressure_sealevel;temperature;humidity
62126;BME280;69591;53.282;6.150;2023-08-01T00:00:40;99788.50;;;22.03;68.03
62126;BME280;69591;53.282;6.150;2023-08-01T00:01:41;99781.00;;;22.04;68.53
62126;BME280;69591;53.282;6.150;2023-08-01T00:02:43;99792.00;;;22.04;68.66
62126;BME280;69591;53.282;6.150;2023-08-01T00:03:45;99781.75;;;22.04;68.21
62126;BME280;69591;53.282;6.150;2023-08-01T00:04:46;99784.50;;;22.04;68.71
62126;BME280;69591;53.282;6.150;2023-08-01T00:05:48;99792.00;;;22.04;68.41
62126;BME280;69591;53.282;6.150;2023-08-01T00:06:50;99780.25;;;22.03;68.48
62126;BME280;69591;53.282;6.150;2023-08-01T00:07:51;99791.22;;;22.03;68.20
62126;BME280;69591;53.282;6.150;2023-08-01T00:08:54;99792.75;;;22.04;68.30
62126;BME280;69591;53.282;6.150;2023-08-01T00:09:56;99778.28;;;22.04;68.67
62126;BME280;69591;53.282;6.150;2023-08-01T00:10:58;99781.44;;;22.02;68.30
62126;BME280;69591;53.282;6.150;2023-08-01T00:11:59;99779.47;;;22.03;68.43
62126;BME280;69591;53.282;6.150;2023-08-01T00:13:02;99770.44;;;22.02;68.22
62126;BME280;69591;53.282;6.150;2023-08-01T00:14:04;99773.19;;;22.02;68.09
62126;BME280;69591;53.282;6.150;2023-08-01T00:15:07;99773.97;;;22.03;68.13
62126;BME280;69591;53.282;6.150;2023-08-01T00:16:09;99776.72;;;22.03;68.48
62126;BME280;69591;53.282;6.150;2023-08-01T00:17:10;99766.16;;;22.01;68.51
62126;BME280;69591;53.282;6.150;2023-08-01T00:18:12;99775.19;;;22.02;68.22
62126;BME280;69591;53.282;6.150;2023-08-01T00:19:14;99772.44;;;22.02;68.32
62126;BME280;69591;53.282;6.150;2023-08-01T00:20:15;99771.22;;;22.03;68.45
62126;BME280;69591;53.282;6.150;2023-08-01T00:21:17;99768.91;;;22.01;68.24
62126;BME280;69591;53.282;6.150;2023-08-01T00:22:19;99771.66;;;22.01;67.79
62126;BME280;69591;53.282;6.150;2023-08-01T00:23:20;99765.38;;;22.01;68.49
62126;BME280;69591;53.282;6.150;2023-08-01T00:24:23;99763.41;;;22.01;67.86
62126;BME280;69591;53.282;6.150;2023-08-01T00:25:25;99761.88;;;22.00;67.94
62126;BME280;69591;53.282;6.150;2023-08-01T00:26:27;99751.63;;;22.01;67.95
62126;BME280;69591;53.282;6.150;2023-08-01T00:27:28;99753.63;;;22.00;67.90
62126;BME280;69591;53.282;6.150;2023-08-01T00:28:40;99749.78;;;21.98;67.99
62126;BME280;69591;53.282;6.150;2023-08-01T00:29:42;99747.81;;;21.98;68.34
62126;BME280;69591;53.282;6.150;2023-08-01T00:30:44;99751.34;;;21.99;68.26
62126;BME280;69591;53.282;6.150;2023-08-01T00:31:45;99748.59;;;21.99;67.97
62126;BME280;69591;53.282;6.150;2023-08-01T00:32:47;99747.81;;;21.98;68.18
62126;BME280;69591;53.282;6.150;2023-08-01T00:33:49;99739.56;;;21.98;68.01
62126;BME280;69591;53.282;6.150;2023-08-01T00:34:50;99745.06;;;21.98;68.01
62126;BME280;69591;53.282;6.150;2023-08-01T00:35:53;99738.78;;;21.98;68.08
62126;BME280;69591;53.282;6.150;2023-08-01T00:36:55;99739.22;;;21.96;67.76
62126;BME280;69591;53.282;6.150;2023-08-01T00:37:56;99744.72;;;21.96;67.85
62126;BME280;69591;53.282;6.150;2023-08-01T00:38:58;99732.53;;;21.97;68.07
62126;BME280;69591;53.282;6.150;2023-08-01T00:40:01;99738.03;;;21.97;68.10
62126;BME280;69591;53.282;6.150;2023-08-01T00:41:03;99728.69;;;21.95;67.71
62126;BME280;69591;53.282;6.150;2023-08-01T00:42:05;99735.72;;;21.96;67.94
62126;BME280;69591;53.282;6.150;2023-08-01T00:43:06;99732.22;;;21.95;67.75
62126;BME280;69591;53.282;6.150;2023-08-01T00:44:08;99734.97;;;21.95;68.00
62126;BME280;69591;53.282;6.150;2023-08-01T00:45:10;99730.97;;;21.96;68.01
62126;BME280;69591;53.282;6.150;2023-08-01T00:46:12;99729.47;;;21.95;68.03
62126;BME280;69591;53.282;6.150;2023-08-01T00:47:14;99725.19;;;21.94;67.92
62126;BME280;69591;53.282;6.150;2023-08-01T00:48:16;99722.44;;;21.94;68.06
62126;BME280;69591;53.282;6.150;2023-08-01T00:49:18;99728.69;;;21.95;67.96
62126;BME280;69591;53.282;6.150;2023-08-01T00:50:19;99725.19;;;21.94;67.85
62126;BME280;69591;53.282;6.150;2023-08-01T00:51:21;99726.38;;;21.93;67.69
62126;BME280;69591;53.282;6.150;2023-08-01T00:52:23;99727.16;;;21.94;68.02
62126;BME280;69591;53.282;6.150;2023-08-01T00:53:25;99713.97;;;21.89;67.57
62126;BME280;69591;53.282;6.150;2023-08-01T00:54:27;99723.28;;;21.91;67.55
62126;BME280;69591;53.282;6.150;2023-08-01T00:55:30;99724.84;;;21.92;67.65
62126;BME280;69591;53.282;6.150;2023-08-01T00:56:33;99727.59;;;21.92;67.72
62126;BME280;69591;53.282;6.150;2023-08-01T00:57:34;99723.28;;;21.91;67.96
62126;BME280;69591;53.282;6.150;2023-08-01T00:58:36;99726.03;;;21.91;67.61
62126;BME280;69591;53.282;6.150;2023-08-01T00:59:38;99722.53;;;21.91;68.05
62126;BME280;69591;53.282;6.150;2023-08-01T01:00:39;99721.78;;;21.90;67.71
62126;BME280;69591;53.282;6.150;2023-08-01T01:01:41;99720.25;;;21.89;67.91
62126;BME280;69591;53.282;6.150;2023-08-01T01:02:43;99718.25;;;21.90;67.53
62126;BME280;69591;53.282;6.150;2023-08-01T01:04:18;99713.44;;;21.81;67.62
62126;BME280;69591;53.282;6.150;2023-08-01T01:05:22;99718.06;;;21.84;67.86
62126;BME280;69591;53.282;6.150;2023-08-01T01:06:28;99714.84;;;21.86;67.29
62126;BME280;69591;53.282;6.150;2023-08-01T01:07:33;99712.56;;;21.84;67.70
62126;BME280;69591;53.282;6.150;2023-08-01T01:08:37;99702.44;;;21.81;67.78
62126;BME280;69591;53.282;6.150;2023-08-01T01:09:39;99713.78;;;21.83;67.51
62126;BME280;69591;53.282;6.150;2023-08-01T01:10:42;99709.81;;;21.84;67.59
62126;BME280;69591;53.282;6.150;2023-08-01T01:11:43;99706.28;;;21.84;67.45
62126;BME280;69591;53.282;6.150;2023-08-01T01:12:45;99710.25;;;21.83;67.78
62126;BME280;69591;53.282;6.150;2023-08-01T01:13:47;99709.47;;;21.82;67.94
62126;BME280;69591;53.282;6.150;2023-08-01T01:14:48;99707.50;;;21.83;67.77
62126;BME280;69591;53.282;6.150;2023-08-01T01:15:50;99708.69;;;21.82;67.45
62126;BME280;69591;53.282;6.150;2023-08-01T01:16:52;99707.94;;;21.81;67.29
62126;BME280;69591;53.282;6.150;2023-08-01T01:17:54;99710.69;;;21.81;67.39
62126;BME280;69591;53.282;6.150;2023-08-01T01:18:55;99711.88;;;21.80;67.35
62126;BME280;69591;53.282;6.150;2023-08-01T01:19:57;99710.69;;;21.81;67.51
62126;BME280;69591;53.282;6.150;2023-08-01T01:21:00;99707.94;;;21.81;67.05
62126;BME280;69591;53.282;6.150;2023-08-01T01:22:03;99706.41;;;21.80;67.46
62126;BME280;69591;53.282;6.150;2023-08-01T01:23:07;99700.91;;;21.80;67.12
62126;BME280;69591;53.282;6.150;2023-08-01T01:24:11;99705.66;;;21.80;67.42
62126;BME280;69591;53.282;6.150;2023-08-01T01:25:15;99701.78;;;21.77;67.52
62126;BME280;69591;53.282;6.150;2023-08-01T01:26:18;99695.09;;;21.78;67.13
62126;BME280;69591;53.282;6.150;2023-08-01T01:27:21;99696.28;;;21.77;67.51
62126;BME280;69591;53.282;6.150;2023-08-01T01:28:24;99697.84;;;21.78;67.61
62126;BME280;69591;53.282;6.150;2023-08-01T01:29:27;99701.78;;;21.77;67.79
62126;BME280;69591;53.282;6.150;2023-08-01T01:30:30;99693.53;;;21.77;67.26
62126;BME280;69591;53.282;6.150;2023-08-01T01:31:33;99694.75;;;21.76;67.52
62126;BME280;69591;53.282;6.150;2023-08-01T01:32:35;99694.75;;;21.76;67.46
62126;BME280;69591;53.282;6.150;2023-08-01T01:33:36;99690.50;;;21.75;67.05
62126;BME280;69591;53.282;6.150;2023-08-01T01:34:38;99693.25;;;21.75;67.44
62126;BME280;69591;53.282;6.150;2023-08-01T01:35:40;99693.25;;;21.75;66.88
62126;BME280;69591;53.282;6.150;2023-08-01T01:36:43;99693.25;;;21.75;67.21
62126;BME280;69591;53.282;6.150;2023-08-01T01:37:45;99688.91;;;21.74;67.14
62126;BME280;69591;53.282;6.150;2023-08-01T01:38:48;99692.09;;;21.73;67.35
62126;BME280;69591;53.282;6.150;2023-08-01T01:39:50;99690.13;;;21.73;67.41
62126;BME280;69591;53.282;6.150;2023-08-01T01:40:51;99688.56;;;21.72;66.93
62126;BME280;69591;53.282;6.150;2023-08-01T01:41:53;99688.56;;;21.72;67.46
62126;BME280;69591;53.282;6.150;2023-08-01T01:42:55;99683.09;;;21.72;66.93
62126;BME280;69591;53.282;6.150;2023-08-01T01:43:56;99682.34;;;21.72;67.19
62126;BME280;69591;53.282;6.150;2023-08-01T01:44:58;99681.56;;;21.71;66.76
62126;BME280;69591;53.282;6.150;2023-08-01T01:46:00;99676.84;;;21.72;67.05
62126;BME280;69591;53.282;6.150;2023-08-01T01:47:02;99680.34;;;21.72;66.70
62126;BME280;69591;53.282;6.150;2023-08-01T01:48:03;99684.31;;;21.71;66.89
62126;BME280;69591;53.282;6.150;2023-08-01T01:49:05;99681.56;;;21.71;66.84
62126;BME280;69591;53.282;6.150;2023-08-01T01:50:07;99678.47;;;21.69;66.96
62126;BME280;69591;53.282;6.150;2023-08-01T01:51:09;99675.72;;;21.69;67.24
62126;BME280;69591;53.282;6.150;2023-08-01T01:52:12;99672.97;;;21.69;67.15
62126;BME280;69591;53.282;6.150;2023-08-01T01:53:14;99675.72;;;21.69;67.17
62126;BME280;69591;53.282;6.150;2023-08-01T01:54:15;99678.47;;;21.69;67.20
62126;BME280;69591;53.282;6.150;2023-08-01T01:55:17;99675.72;;;21.69;67.14
62126;BME280;69591;53.282;6.150;2023-08-01T01:56:19;99671.47;;;21.68;66.78
62126;BME280;69591;53.282;6.150;2023-08-01T01:57:20;99665.97;;;21.68;66.84
62126;BME280;69591;53.282;6.150;2023-08-01T01:58:22;99665.97;;;21.68;66.93
62126;BME280;69591;53.282;6.150;2023-08-01T01:59:24;99665.97;;;21.68;67.13
62126;BME280;69591;53.282;6.150;2023-08-01T02:00:25;99662.44;;;21.68;66.88
62126;BME280;69591;53.282;6.150;2023-08-01T02:01:27;99660.91;;;21.67;66.91
62126;BME280;69591;53.282;6.150;2023-08-01T02:02:29;99662.44;;;21.68;67.00
62126;BME280;69591;53.282;6.150;2023-08-01T02:03:30;99658.16;;;21.67;66.80
62126;BME280;69591;53.282;6.150;2023-08-01T02:04:33;99658.94;;;21.67;66.79
62126;BME280;69591;53.282;6.150;2023-08-01T02:05:34;99656.63;;;21.66;66.48
62126;BME280;69591;53.282;6.150;2023-08-01T02:06:36;99662.13;;;21.66;66.87
62126;BME280;69591;53.282;6.150;2023-08-01T02:07:39;99658.94;;;21.67;66.83
62126;BME280;69591;53.282;6.150;2023-08-01T02:08:41;99657.38;;;21.66;66.72
62126;BME280;69591;53.282;6.150;2023-08-01T02:09:43;99662.13;;;21.66;66.90
62126;BME280;69591;53.282;6.150;2023-08-01T02:10:45;99655.88;;;21.65;66.90
62126;BME280;69591;53.282;6.150;2023-08-01T02:11:46;99662.13;;;21.66;66.48
62126;BME280;69591;53.282;6.150;2023-08-01T02:12:48;99665.63;;;21.66;66.94
62126;BME280;69591;53.282;6.150;2023-08-01T02:13:49;99668.38;;;21.66;66.44
62126;BME280;69591;53.282;6.150;2023-08-01T02:14:51;99671.13;;;21.66;66.68
62126;BME280;69591;53.282;6.150;2023-08-01T02:15:53;99673.13;;;21.66;66.45
62126;BME280;69591;53.282;6.150;2023-08-01T02:16:55;99681.38;;;21.66;66.40
62126;BME280;69591;53.282;6.150;2023-08-01T02:17:56;99675.09;;;21.65;66.78
62126;BME280;69591;53.282;6.150;2023-08-01T02:18:59;99672.34;;;21.65;67.08
62126;BME280;69591;53.282;6.150;2023-08-01T02:20:00;99675.09;;;21.65;66.50
62126;BME280;69591;53.282;6.150;2023-08-01T02:21:02;99671.56;;;21.65;66.30
62126;BME280;69591;53.282;6.150;2023-08-01T02:22:04;99666.50;;;21.63;67.14
62126;BME280;69591;53.282;6.150;2023-08-01T02:23:07;99662.13;;;21.66;66.55
62126;BME280;69591;53.282;6.150;2023-08-01T02:24:09;99664.53;;;21.64;66.75
62126;BME280;69591;53.282;6.150;2023-08-01T02:25:11;99669.25;;;21.63;66.37
62126;BME280;69591;53.282;6.150;2023-08-01T02:26:12;99661.81;;;21.64;66.23
62126;BME280;69591;53.282;6.150;2023-08-01T02:27:14;99676.31;;;21.64;66.29
62126;BME280;69591;53.282;6.150;2023-08-01T02:28:16;99659.06;;;21.64;66.20
62126;BME280;69591;53.282;6.150;2023-08-01T02:29:18;99655.53;;;21.63;66.18
62126;BME280;69591;53.282;6.150;2023-08-01T02:30:19;99658.28;;;21.63;66.61
62126;BME280;69591;53.282;6.150;2023-08-01T02:31:21;99647.28;;;21.63;66.64
62126;BME280;69591;53.282;6.150;2023-08-01T02:32:23;99654.34;;;21.64;66.16
62126;BME280;69591;53.282;6.150;2023-08-01T02:33:25;99652.78;;;21.63;66.42
62126;BME280;69591;53.282;6.150;2023-08-01T02:34:27;99654.00;;;21.62;66.21
62126;BME280;69591;53.282;6.150;2023-08-01T02:35:29;99656.75;;;21.62;66.43
62126;BME280;69591;53.282;6.150;2023-08-01T02:36:31;99661.03;;;21.63;66.05
62126;BME280;69591;53.282;6.150;2023-08-01T02:37:32;99657.50;;;21.63;66.65
62126;BME280;69591;53.282;6.150;2023-08-01T02:38:35;99659.06;;;21.64;66.10
62126;BME280;69591;53.282;6.150;2023-08-01T02:39:37;99648.50;;;21.62;66.11
62126;BME280;69591;53.282;6.150;2023-08-01T02:40:39;99656.75;;;21.62;66.52
62126;BME280;69591;53.282;6.150;2023-08-01T02:41:40;99662.25;;;21.62;66.17
62126;BME280;69591;53.282;6.150;2023-08-01T02:42:42;99663.00;;;21.63;66.07
62126;BME280;69591;53.282;6.150;2023-08-01T02:43:44;99662.25;;;21.62;66.34
62126;BME280;69591;53.282;6.150;2023-08-01T02:44:45;99666.97;;;21.62;65.91
62126;BME280;69591;53.282;6.150;2023-08-01T02:45:47;99662.25;;;21.62;66.00
62126;BME280;69591;53.282;6.150;2023-08-01T02:46:49;99662.25;;;21.62;65.96
62126;BME280;69591;53.282;6.150;2023-08-01T02:47:50;99666.97;;;21.62;66.25
62126;BME280;69591;53.282;6.150;2023-08-01T02:48:52;99669.72;;;21.62;66.35
62126;BME280;69591;53.282;6.150;2023-08-01T02:49:54;99665.00;;;21.62;65.81
62126;BME280;69591;53.282;6.150;2023-08-01T02:50:55;99654.44;;;21.61;66.28
62126;BME280;69591;53.282;6.150;2023-08-01T02:51:57;99655.19;;;21.61;66.39
62126;BME280;69591;53.282;6.150;2023-08-01T02:52:59;99655.19;;;21.61;66.35
62126;BME280;69591;53.282;6.150;2023-08-01T02:54:02;99660.69;;;21.61;65.79
62126;BME280;69591;53.282;6.150;2023-08-01T02:55:04;99661.56;;;21.58;65.84
62126;BME280;69591;53.282;6.150;2023-08-01T02:56:06;99660.69;;;21.61;66.18
62126;BME280;69591;53.282;6.150;2023-08-01T02:57:08;99659.16;;;21.60;66.38
62126;BME280;69591;53.282;6.150;2023-08-01T02:58:09;99659.94;;;21.61;66.03
62126;BME280;69591;53.282;6.150;2023-08-01T02:59:11;99659.16;;;21.60;66.46
62126;BME280;69591;53.282;6.150;2023-08-01T03:00:13;99666.19;;;21.61;66.46
62126;BME280;69591;53.282;6.150;2023-08-01T03:01:15;99656.41;;;21.60;65.85
62126;BME280;69591;53.282;6.150;2023-08-01T03:02:17;99656.41;;;21.60;66.18
62126;BME280;69591;53.282;6.150;2023-08-01T03:03:18;99661.91;;;21.60;65.80
62126;BME280;69591;53.282;6.150;2023-08-01T03:04:20;99668.19;;;21.61;65.76
62126;BME280;69591;53.282;6.150;2023-08-01T03:05:35;99661.56;;;21.58;65.87
62126;BME280;69591;53.282;6.150;2023-08-01T03:06:37;99664.31;;;21.58;65.75
62126;BME280;69591;53.282;6.150;2023-08-01T03:07:40;99662.34;;;21.59;66.28
62126;BME280;69591;53.282;6.150;2023-08-01T03:08:42;99661.56;;;21.58;65.79
62126;BME280;69591;53.282;6.150;2023-08-01T03:09:45;99660.38;;;21.59;65.88
62126;BME280;69591;53.282;6.150;2023-08-01T03:10:47;99662.81;;;21.57;65.61
62126;BME280;69591;53.282;6.150;2023-08-01T03:11:48;99658.09;;;21.58;66.21
62126;BME280;69591;53.282;6.150;2023-08-01T03:12:50;99660.06;;;21.57;66.09
62126;BME280;69591;53.282;6.150;2023-08-01T03:13:52;99660.06;;;21.57;65.75
62126;BME280;69591;53.282;6.150;2023-08-01T03:14:54;99661.56;;;21.58;65.70
62126;BME280;69591;53.282;6.150;2023-08-01T03:15:55;99657.31;;;21.57;65.71
62126;BME280;69591;53.282;6.150;2023-08-01T03:16:57;99661.56;;;21.58;65.98
62126;BME280;69591;53.282;6.150;2023-08-01T03:17:59;99658.09;;;21.58;65.79
62126;BME280;69591;53.282;6.150;2023-08-01T03:19:02;99654.56;;;21.57;65.95
62126;BME280;69591;53.282;6.150;2023-08-01T03:20:05;99660.84;;;21.58;66.08
62126;BME280;69591;53.282;6.150;2023-08-01T03:21:07;99655.78;;;21.56;66.12
62126;BME280;69591;53.282;6.150;2023-08-01T03:22:09;99654.56;;;21.57;65.66
62126;BME280;69591;53.282;6.150;2023-08-01T03:23:11;99655.34;;;21.58;65.67
62126;BME280;69591;53.282;6.150;2023-08-01T03:24:12;99653.03;;;21.56;65.68
62126;BME280;69591;53.282;6.150;2023-08-01T03:25:16;99645.09;;;21.58;65.63
62126;BME280;69591;53.282;6.150;2023-08-01T03:26:17;99646.75;;;21.56;66.00
62126;BME280;69591;53.282;6.150;2023-08-01T03:27:19;99647.53;;;21.56;66.26
62126;BME280;69591;53.282;6.150;2023-08-01T03:28:21;99652.25;;;21.56;65.65
62126;BME280;69591;53.282;6.150;2023-08-01T03:29:22;99647.53;;;21.56;66.18
62126;BME280;69591;53.282;6.150;2023-08-01T03:30:24;99646.00;;;21.55;65.81
62126;BME280;69591;53.282;6.150;2023-08-01T03:31:28;99652.25;;;21.56;65.99
62126;BME280;69591;53.282;6.150;2023-08-01T03:32:30;99650.28;;;21.56;66.01
62126;BME280;69591;53.282;6.150;2023-08-01T03:33:32;99652.25;;;21.56;65.59
62126;BME280;69591;53.282;6.150;2023-08-01T03:34:34;99655.78;;;21.56;65.49
62126;BME280;69591;53.282;6.150;2023-08-01T03:35:35;99655.00;;;21.56;66.13
62126;BME280;69591;53.282;6.150;2023-08-01T03:36:37;99653.78;;;21.57;65.70
62126;BME280;69591;53.282;6.150;2023-08-01T03:37:39;99654.56;;;21.57;65.51
62126;BME280;69591;53.282;6.150;2023-08-01T03:38:41;99653.03;;;21.56;66.12
62126;BME280;69591;53.282;6.150;2023-08-01T03:39:43;99658.53;;;21.56;65.46
62126;BME280;69591;53.282;6.150;2023-08-01T03:40:46;99660.06;;;21.57;65.71
62126;BME280;69591;53.282;6.150;2023-08-01T03:41:48;99658.53;;;21.56;66.17
62126;BME280;69591;53.282;6.150;2023-08-01T03:42:50;99660.50;;;21.56;66.06
62126;BME280;69591;53.282;6.150;2023-08-01T03:43:51;99659.72;;;21.55;65.48
62126;BME280;69591;53.282;6.150;2023-08-01T03:44:53;99657.41;;;21.54;65.67
62126;BME280;69591;53.282;6.150;2023-08-01T03:45:54;99651.47;;;21.55;65.96
62126;BME280;69591;53.282;6.150;2023-08-01T03:46:56;99656.97;;;21.55;65.84
62126;BME280;69591;53.282;6.150;2023-08-01T03:47:58;99658.97;;;21.55;65.45
62126;BME280;69591;53.282;6.150;2023-08-01T03:49:00;99663.25;;;21.56;65.71
62126;BME280;69591;53.282;6.150;2023-08-01T03:50:02;99659.28;;;21.57;65.49
62126;BME280;69591;53.282;6.150;2023-08-01T03:51:04;99657.75;;;21.56;65.96
62126;BME280;69591;53.282;6.150;2023-08-01T03:52:07;99653.91;;;21.53;65.78
62126;BME280;69591;53.282;6.150;2023-08-01T03:53:08;99659.72;;;21.55;65.27
62126;BME280;69591;53.282;6.150;2023-08-01T03:54:10;99661.72;;;21.55;65.39
62126;BME280;69591;53.282;6.150;2023-08-01T03:55:15;99660.94;;;21.54;65.42
62126;BME280;69591;53.282;6.150;2023-08-01T03:56:18;99656.97;;;21.55;65.34
62126;BME280;69591;53.282;6.150;2023-08-01T03:57:19;99653.59;;;21.51;65.30
62126;BME280;69591;53.282;6.150;2023-08-01T03:58:21;99660.50;;;21.56;65.51
62126;BME280;69591;53.282;6.150;2023-08-01T03:59:23;99660.50;;;21.56;65.48
62126;BME280;69591;53.282;6.150;2023-08-01T04:00:24;99656.63;;;21.53;65.37
62126;BME280;69591;53.282;6.150;2023-08-01T04:01:26;99663.25;;;21.56;65.79
62126;BME280;69591;53.282;6.150;2023-08-01T04:02:28;99665.22;;;21.55;65.41
62126;BME280;69591;53.282;6.150;2023-08-01T04:03:29;99666.44;;;21.54;65.42
62126;BME280;69591;53.282;6.150;2023-08-01T04:04:31;99667.97;;;21.55;65.63
62126;BME280;69591;53.282;6.150;2023-08-01T04:05:33;99662.47;;;21.55;65.51
62126;BME280;69591;53.282;6.150;2023-08-01T04:06:34;99673.47;;;21.55;65.62
62126;BME280;69591;53.282;6.150;2023-08-01T04:07:36;99671.16;;;21.54;65.54
62126;BME280;69591;53.282;6.150;2023-08-01T04:08:38;99670.72;;;21.55;65.39
62126;BME280;69591;53.282;6.150;2023-08-01T04:09:40;99668.75;;;21.56;65.18
62126;BME280;69591;53.282;6.150;2023-08-01T04:10:41;99662.47;;;21.55;65.38
62126;BME280;69591;53.282;6.150;2023-08-01T04:11:44;99671.47;;;21.56;65.68
62126;BME280;69591;53.282;6.150;2023-08-01T04:12:46;99666.44;;;21.54;65.62
62126;BME280;69591;53.282;6.150;2023-08-01T04:13:48;99665.66;;;21.54;65.63
62126;BME280;69591;53.282;6.150;2023-08-01T04:14:50;99662.47;;;21.55;65.60
62126;BME280;69591;53.282;6.150;2023-08-01T04:15:51;99670.72;;;21.55;65.57
62126;BME280;69591;53.282;6.150;2023-08-01T04:16:53;99662.47;;;21.55;65.10
62126;BME280;69591;53.282;6.150;2023-08-01T04:17:55;99669.97;;;21.55;65.40
62126;BME280;69591;53.282;6.150;2023-08-01T04:18:56;99659.38;;;21.53;65.06
62126;BME280;69591;53.282;6.150;2023-08-01T04:19:58;99658.19;;;21.54;65.04
62126;BME280;69591;53.282;6.150;2023-08-01T04:21:00;99655.44;;;21.54;65.15
62126;BME280;69591;53.282;6.150;2023-08-01T04:22:02;99660.50;;;21.56;65.34
62126;BME280;69591;53.282;6.150;2023-08-01T04:23:03;99659.72;;;21.55;65.12
62126;BME280;69591;53.282;6.150;2023-08-01T04:24:05;99661.28;;;21.56;65.59
62126;BME280;69591;53.282;6.150;2023-08-01T04:25:07;99664.03;;;21.56;65.41
62126;BME280;69591;53.282;6.150;2023-08-01T04:26:09;99660.50;;;21.56;64.96
62126;BME280;69591;53.282;6.150;2023-08-01T04:27:12;99662.81;;;21.57;65.39
62126;BME280;69591;53.282;6.150;2023-08-01T04:28:14;99662.81;;;21.57;65.27
62126;BME280;69591;53.282;6.150;2023-08-01T04:29:16;99667.06;;;21.58;64.99
62126;BME280;69591;53.282;6.150;2023-08-01T04:30:17;99664.31;;;21.58;64.83
62126;BME280;69591;53.282;6.150;2023-08-01T04:31:19;99663.13;;;21.59;65.02
62126;BME280;69591;53.282;6.150;2023-08-01T04:32:21;99660.69;;;21.61;65.13
62126;BME280;69591;53.282;6.150;2023-08-01T04:33:22;99662.25;;;21.62;64.79
62126;BME280;69591;53.282;6.150;2023-08-01T04:34:24;99668.06;;;21.64;65.09
62126;BME280;69591;53.282;6.150;2023-08-01T04:35:26;99667.63;;;21.66;65.02
62126;BME280;69591;53.282;6.150;2023-08-01T04:36:27;99669.94;;;21.67;64.78
62126;BME280;69591;53.282;6.150;2023-08-01T04:37:29;99678.47;;;21.69;64.74
62126;BME280;69591;53.282;6.150;2023-08-01T04:38:31;99669.03;;;21.70;64.84
62126;BME280;69591;53.282;6.150;2023-08-01T04:39:32;99670.13;;;21.73;64.39
62126;BME280;69591;53.282;6.150;2023-08-01T04:40:34;99679.13;;;21.73;64.67
62126;BME280;69591;53.282;6.150;2023-08-01T04:41:36;99672.78;;;21.76;64.56
62126;BME280;69591;53.282;6.150;2023-08-01T04:42:39;99669.16;;;21.79;64.24
62126;BME280;69591;53.282;6.150;2023-08-01T04:43:41;99668.69;;;21.81;64.43
62126;BME280;69591;53.282;6.150;2023-08-01T04:44:42;99667.06;;;21.83;63.86
62126;BME280;69591;53.282;6.150;2023-08-01T04:45:44;99670.13;;;21.85;64.03
62126;BME280;69591;53.282;6.150;2023-08-01T04:46:47;99670.78;;;21.89;63.75
62126;BME280;69591;53.282;6.150;2023-08-01T04:47:49;99671.53;;;21.90;64.24
62126;BME280;69591;53.282;6.150;2023-08-01T04:48:51;99673.53;;;21.89;63.70
62126;BME280;69591;53.282;6.150;2023-08-01T04:49:52;99678.13;;;21.92;63.88
62126;BME280;69591;53.282;6.150;2023-08-01T04:50:54;99675.38;;;21.92;63.81
62126;BME280;69591;53.282;6.150;2023-08-01T04:51:56;99675.38;;;21.92;63.90
62126;BME280;69591;53.282;6.150;2023-08-01T04:52:57;99675.38;;;21.92;63.72
62126;BME280;69591;53.282;6.150;2023-08-01T04:53:59;99676.56;;;21.91;64.00
62126;BME280;69591;53.282;6.150;2023-08-01T04:55:01;99675.03;;;21.90;63.89
62126;BME280;69591;53.282;6.150;2023-08-01T04:56:03;99674.28;;;21.90;63.81
62126;BME280;69591;53.282;6.150;2023-08-01T04:57:05;99673.53;;;21.89;63.79
62126;BME280;69591;53.282;6.150;2023-08-01T04:58:08;99670.00;;;21.89;63.63
62126;BME280;69591;53.282;6.150;2023-08-01T04:59:12;99669.38;;;21.85;64.14
62126;BME280;69591;53.282;6.150;2023-08-01T05:00:14;99675.59;;;21.85;63.62
62126;BME280;69591;53.282;6.150;2023-08-01T05:01:16;99679.56;;;21.84;64.21
62126;BME280;69591;53.282;6.150;2023-08-01T05:02:17;99681.56;;;21.84;64.20
62126;BME280;69591;53.282;6.150;2023-08-01T05:03:19;99676.50;;;21.82;63.86
62126;BME280;69591;53.282;6.150;2023-08-01T05:04:21;99674.97;;;21.81;64.31
62126;BME280;69591;53.282;6.150;2023-08-01T05:05:22;99680.47;;;21.81;63.88
62126;BME280;69591;53.282;6.150;2023-08-01T05:06:24;99685.97;;;21.81;63.76
62126;BME280;69591;53.282;6.150;2023-08-01T05:07:26;99678.91;;;21.80;63.86
62126;BME280;69591;53.282;6.150;2023-08-01T05:08:27;99678.16;;;21.80;64.47
62126;BME280;69591;53.282;6.150;2023-08-01T05:09:29;99671.91;;;21.79;64.10
62126;BME280;69591;53.282;6.150;2023-08-01T05:10:31;99673.88;;;21.79;63.97
62126;BME280;69591;53.282;6.150;2023-08-01T05:11:32;99664.88;;;21.78;64.27
62126;BME280;69591;53.282;6.150;2023-08-01T05:12:34;99675.88;;;21.78;64.40
62126;BME280;69591;53.282;6.150;2023-08-01T05:13:37;99670.38;;;21.78;63.93
62126;BME280;69591;53.282;6.150;2023-08-01T05:14:39;99672.41;;;21.74;64.04
62126;BME280;69591;53.282;6.150;2023-08-01T05:15:40;99672.78;;;21.76;64.50
62126;BME280;69591;53.282;6.150;2023-08-01T05:16:42;99671.25;;;21.75;64.44
62126;BME280;69591;53.282;6.150;2023-08-01T05:17:44;99671.25;;;21.75;64.28
62126;BME280;69591;53.282;6.150;2023-08-01T05:18:46;99675.16;;;21.74;64.42
62126;BME280;69591;53.282;6.150;2023-08-01T05:19:48;99677.91;;;21.74;63.96
62126;BME280;69591;53.282;6.150;2023-08-01T05:20:49;99669.69;;;21.74;63.96
62126;BME280;69591;53.282;6.150;2023-08-01T05:21:51;99669.69;;;21.74;64.04
62126;BME280;69591;53.282;6.150;2023-08-01T05:22:52;99664.19;;;21.74;64.17
62126;BME280;69591;53.282;6.150;2023-08-01T05:23:56;99678.28;;;21.76;64.00
62126;BME280;69591;53.282;6.150;2023-08-01T05:24:58;99671.25;;;21.75;64.30
62126;BME280;69591;53.282;6.150;2023-08-01T05:26:00;99672.78;;;21.76;64.04
62126;BME280;69591;53.282;6.150;2023-08-01T05:27:01;99676.75;;;21.75;63.93
62126;BME280;69591;53.282;6.150;2023-08-01T05:28:03;99670.91;;;21.73;64.10
62126;BME280;69591;53.282;6.150;2023-08-01T05:29:06;99670.81;;;21.77;64.39